Terminal Aerodrome Forecast
Issued by NWS

Current Version | Previous Version | Text Only | Print | Product List | Glossary On
Versions: 1 2 3 4 5 6 7 8 9 10 11 12 13 14 15 16 17 18 19 20 21 22 23 24 25 26 27 28 29 30 31 32 33 34 35 36 37 38 39 40 41
000
FTUS41 KBGM 210831 AAT
TAFITH
TAF AMD
KITH 210831Z 2109/2206 15005KT P6SM OVC007
     FM211100 17012KT P6SM BKN012 WS020/20040KT
     FM211400 18013G19KT P6SM BKN045
     FM212100 22008KT P6SM OVC040
      TEMPO 2121/2124 4SM -SHRA OVC025
     FM220000 VRB04KT P6SM BKN040=

USA.gov is the U.S. government's official web portal to all federal, state and local government web resources and services.